Time;durP1;ratioP1;P1;durP2;ratioP2;P2;SDS_P1;SDS_P2;PMS_P1;PMS_P2;Temp;Humidity;BMP_temperature;BMP_pressure;BME280_temperature;BME280_humidity;BME280_pressure;Samples;Min_cycle;Max_cycle;Signal;HPM_P1;HPM_P2
2023/01/30 00:01:17;;;;;;;21.45;8.20;;;-1.40;99.90;;;;;;5049858;28;20777;-59
2023/01/30 00:03:44;;;;;;;19.45;8.52;;;-1.40;99.90;;;;;;5048929;28;20381;-60
2023/01/30 00:06:10;;;;;;;17.70;8.77;;;-0.60;1.00;;;;;;5049402;28;20393;-59
2023/01/30 00:08:35;;;;;;;19.40;8.48;;;-1.40;1.00;;;;;;5048882;28;20378;-59
2023/01/30 00:11:06;;;;;;;17.40;9.13;;;-1.30;99.90;;;;;;5049507;28;20922;-59
2023/01/30 00:13:32;;;;;;;20.73;8.98;;;-1.30;99.90;;;;;;5048748;28;20843;-59
2023/01/30 00:15:58;;;;;;;16.95;8.27;;;-1.30;99.90;;;;;;5049239;28;20765;-59
2023/01/30 00:18:23;;;;;;;15.63;7.95;;;-1.30;99.90;;;;;;5049378;28;20405;-59
2023/01/30 00:20:58;;;;;;;21.60;9.60;;;-1.30;99.90;;;;;;5049732;28;20405;-59
2023/01/30 00:23:27;;;;;;;17.33;8.20;;;-1.20;1.00;;;;;;5049303;28;20861;-59
2023/01/30 00:25:53;;;;;;;17.40;7.45;;;-1.20;99.90;;;;;;5048880;28;20463;-60
2023/01/30 00:28:19;;;;;;;19.45;8.30;;;-1.30;99.90;;;;;;5049500;28;20839;-59
2023/01/30 00:30:48;;;;;;;21.00;7.85;;;-1.40;99.90;;;;;;5048832;28;20452;-59
2023/01/30 00:33:14;;;;;;;17.40;8.95;;;-1.50;1.00;;;;;;5048220;28;20487;-59
2023/01/30 00:35:47;;;;;;;19.70;8.47;;;-1.40;99.90;;;;;;5048437;28;20489;-59
2023/01/30 00:38:13;;;;;;;19.35;7.78;;;-1.40;99.90;;;;;;5049175;28;20449;-60
2023/01/30 00:40:39;;;;;;;16.55;7.72;;;-1.40;66.90;;;;;;5048615;28;20413;-59
2023/01/30 00:48:35;;;;;;;18.85;8.55;;;-1.50;99.90;;;;;;5028653;28;20387;-60
2023/01/30 00:51:01;;;;;;;20.50;9.63;;;-1.50;99.90;;;;;;5029359;28;20383;-61
2023/01/30 00:53:27;;;;;;;18.35;7.72;;;-1.50;99.90;;;;;;5028638;28;20444;-59
2023/01/30 00:55:54;;;;;;;17.47;7.80;;;-1.50;1.00;;;;;;5031921;28;20395;-59
2023/01/30 00:58:25;;;;;;;20.05;8.73;;;-1.50;99.90;;;;;;5032859;28;20418;-59
2023/01/30 01:00:51;;;;;;;19.92;8.27;;;-1.50;1.00;;;;;;5032659;28;20500;-59
2023/01/30 01:03:17;;;;;;;20.55;8.40;;;-1.50;1.00;;;;;;5033074;28;20463;-60
2023/01/30 01:05:43;;;;;;;17.80;7.35;;;-1.40;1.00;;;;;;5032123;28;20386;-59
2023/01/30 01:08:10;;;;;;;21.70;9.60;;;-1.40;99.90;;;;;;5032746;28;20383;-59
2023/01/30 01:10:35;;;;;;;21.70;8.32;;;-1.40;1.00;;;;;;5031997;28;20382;-59
2023/01/30 01:13:02;;;;;;;21.35;8.55;;;-1.30;1.00;;;;;;5032760;28;20737;-59
2023/01/30 01:15:28;;;;;;;19.02;8.10;;;-1.20;99.90;;;;;;5032007;28;20387;-58
2023/01/30 01:17:54;;;;;;;17.63;8.45;;;-1.10;1.00;;;;;;5032892;28;20403;-60
2023/01/30 01:20:21;;;;;;;21.63;8.60;;;-1.00;99.90;;;;;;5032550;28;20885;-59
2023/01/30 01:22:51;;;;;;;20.23;9.97;;;-1.10;1.00;;;;;;5031652;28;20375;-59
2023/01/30 01:25:18;;;;;;;26.10;10.90;;;-0.90;14.50;;;;;;5032154;28;20480;-60
2023/01/30 01:27:43;;;;;;;21.08;9.70;;;-1.00;99.90;;;;;;5031292;28;20524;-60
2023/01/30 01:30:10;;;;;;;17.77;8.30;;;-1.10;99.90;;;;;;5032129;28;20480;-59
2023/01/30 01:32:35;;;;;;;20.50;10.13;;;-1.00;99.90;;;;;;5031553;28;20383;-60
2023/01/30 01:35:01;;;;;;;19.83;9.45;;;-1.00;50.20;;;;;;5032231;28;20437;-60
2023/01/30 01:37:27;;;;;;;17.40;8.83;;;-1.00;93.50;;;;;;5032065;28;20410;-58
2023/01/30 01:42:37;;;;;;;21.35;8.90;;;-1.00;1.00;;;;;;5031404;28;20391;-59
2023/01/30 01:45:12;;;;;;;21.38;9.40;;;-1.00;4.00;;;;;;5032313;28;20386;-59
2023/01/30 01:48:00;;;;;;;20.45;9.15;;;-1.00;99.90;;;;;;5031445;28;20390;-59
2023/01/30 01:51:07;;;;;;;23.17;9.63;;;-0.90;1.00;;;;;;5031021;28;20748;-58
2023/01/30 01:53:37;;;;;;;19.90;8.23;;;-0.70;1.00;;;;;;5022358;28;20582;-59
2023/01/30 01:56:04;;;;;;;19.50;8.15;;;-0.60;99.90;;;;;;5030703;28;20391;-59
2023/01/30 01:59:05;;;;;;;19.77;9.32;;;-0.50;99.90;;;;;;5031106;28;20399;-59
2023/01/30 02:01:31;;;;;;;18.77;8.75;;;-0.50;99.90;;;;;;5024054;28;20399;-59
2023/01/30 02:04:02;;;;;;;22.42;9.32;;;-0.50;1.00;;;;;;5047065;28;20745;-59
2023/01/30 02:06:28;;;;;;;21.77;9.38;;;-0.40;49.00;;;;;;5030387;28;20875;-58
2023/01/30 02:09:01;;;;;;;19.67;8.48;;;-0.20;1.00;;;;;;5031557;28;20474;-59
2023/01/30 02:11:42;;;;;;;20.10;8.27;;;-0.40;99.90;;;;;;5030981;28;20392;-59
2023/01/30 02:14:09;;;;;;;19.52;8.20;;;-0.30;49.80;;;;;;5031714;28;20383;-59
2023/01/30 02:16:36;;;;;;;19.25;8.27;;;-0.50;99.90;;;;;;5031076;28;20411;-59
2023/01/30 02:19:04;;;;;;;23.65;9.35;;;-0.50;99.90;;;;;;5031512;28;20421;-59
2023/01/30 02:21:48;;;;;;;19.43;8.50;;;-0.60;8.70;;;;;;5031103;28;20383;-59
2023/01/30 02:24:29;;;;;;;15.73;7.40;;;-0.70;99.90;;;;;;5031451;28;20406;-59
2023/01/30 02:27:13;;;;;;;18.50;8.90;;;-0.60;1.00;;;;;;5031161;28;20411;-59
2023/01/30 02:29:48;;;;;;;21.10;8.63;;;-0.80;1.00;;;;;;5030344;28;20387;-59
2023/01/30 02:32:27;;;;;;;21.38;8.60;;;-0.80;99.90;;;;;;5031221;28;20395;-59
2023/01/30 02:35:11;;;;;;;17.53;8.10;;;-0.90;1.00;;;;;;5031763;28;20373;-59
2023/01/30 02:37:55;;;;;;;21.45;9.15;;;-1.00;99.90;;;;;;5030455;28;20453;-59
2023/01/30 02:40:38;;;;;;;21.30;8.73;;;-1.00;99.90;;;;;;5031523;28;20462;-59
2023/01/30 02:43:24;;;;;;;22.05;9.25;;;-1.10;99.90;;;;;;5037982;28;20384;-58
2023/01/30 02:46:15;;;;;;;20.00;9.20;;;-0.90;99.90;;;;;;5050084;28;20412;-60
2023/01/30 02:48:44;;;;;;;18.67;7.72;;;-0.90;1.00;;;;;;5050607;28;20451;-58
2023/01/30 02:51:20;;;;;;;16.70;8.95;;;-0.90;1.00;;;;;;5050974;28;20465;-58
2023/01/30 02:53:47;;;;;;;20.77;9.17;;;-1.10;1.00;;;;;;5050559;28;20473;-58
2023/01/30 02:56:14;;;;;;;20.05;8.75;;;-1.00;1.00;;;;;;5050178;28;20475;-58
2023/01/30 02:58:46;;;;;;;19.02;8.75;;;-1.00;1.00;;;;;;5049875;28;20965;-58
2023/01/30 03:01:29;;;;;;;18.45;8.55;;;-0.90;1.00;;;;;;5051038;28;20405;-60
2023/01/30 03:04:26;;;;;;;17.33;8.33;;;-0.80;1.00;;;;;;5051109;28;20480;-58
2023/01/30 03:07:11;;;;;;;20.73;8.57;;;-0.70;1.00;;;;;;5050943;28;20393;-59
2023/01/30 03:09:46;;;;;;;17.13;8.10;;;-0.70;99.90;;;;;;5049679;28;20464;-58
2023/01/30 03:12:36;;;;;;;19.05;8.27;;;-0.70;1.00;;;;;;5050660;28;20411;-58
2023/01/30 03:15:10;;;;;;;21.95;8.80;;;-0.70;1.00;;;;;;5050326;28;20393;-58
2023/01/30 03:17:39;;;;;;;18.40;7.18;;;-0.60;1.00;;;;;;5049508;28;20406;-57
2023/01/30 03:20:06;;;;;;;17.52;7.63;;;-0.70;99.90;;;;;;5050274;28;20386;-58
2023/01/30 03:22:31;;;;;;;16.53;6.90;;;-0.70;1.00;;;;;;5049303;28;20381;-57
2023/01/30 03:24:57;;;;;;;20.13;8.60;;;-0.80;1.00;;;;;;5050150;28;20885;-58
2023/01/30 03:27:23;;;;;;;17.00;7.55;;;-0.60;99.90;;;;;;5050473;28;20502;-58
2023/01/30 03:29:49;;;;;;;18.73;7.93;;;-0.60;1.00;;;;;;5049369;28;20580;-57
2023/01/30 03:32:14;;;;;;;16.87;8.20;;;-0.60;1.00;;;;;;5050171;28;20864;-58
2023/01/30 03:34:40;;;;;;;19.15;6.90;;;-0.40;1.00;;;;;;5048945;28;20467;-58
2023/01/30 03:37:06;;;;;;;19.10;7.32;;;-0.20;99.90;;;;;;5049843;28;20471;-58
2023/01/30 03:39:32;;;;;;;17.37;7.23;;;-0.10;1.00;;;;;;5049108;28;20738;-58
2023/01/30 03:41:57;;;;;;;15.93;6.63;;;0.10;69.20;;;;;;5049740;28;20384;-60
2023/01/30 03:44:23;;;;;;;15.50;6.72;;;0.10;99.90;;;;;;5049041;28;20488;-58
2023/01/30 03:46:48;;;;;;;14.77;6.93;;;0.20;99.90;;;;;;5048155;28;20640;-58
2023/01/30 03:49:14;;;;;;;18.60;7.10;;;0.20;99.90;;;;;;5049762;28;20388;-58
2023/01/30 03:51:39;;;;;;;15.95;6.97;;;0.20;99.90;;;;;;5046635;28;20437;-58
2023/01/30 03:54:05;;;;;;;15.80;6.57;;;0.30;99.90;;;;;;5038379;28;20915;-58
2023/01/30 03:56:31;;;;;;;13.30;5.73;;;0.30;99.60;;;;;;5028593;28;20390;-57
2023/01/30 03:58:56;;;;;;;14.48;5.88;;;0.30;86.80;;;;;;5029951;28;20423;-58
2023/01/30 04:01:22;;;;;;;14.20;5.80;;;0.20;66.40;;;;;;5029656;28;20391;-58
2023/01/30 04:03:48;;;;;;;12.80;5.30;;;0.20;55.90;;;;;;5028999;28;20395;-58
2023/01/30 04:06:13;;;;;;;15.77;6.07;;;0.00;99.90;;;;;;5029543;28;20390;-58
2023/01/30 04:08:39;;;;;;;13.80;5.60;;;0.00;1.00;;;;;;5028552;28;20860;-58
2023/01/30 04:11:06;;;;;;;17.80;6.30;;;-0.10;1.00;;;;;;5029459;28;20387;-58
2023/01/30 04:13:32;;;;;;;13.80;6.20;;;-0.10;99.90;;;;;;5029283;28;20391;-58
2023/01/30 04:16:33;;;;;;;15.47;6.17;;;-0.10;99.90;;;;;;5029491;28;20379;-58
2023/01/30 04:18:58;;;;;;;16.47;6.50;;;0.00;99.90;;;;;;4987690;28;20453;-58
2023/01/30 04:21:24;;;;;;;14.77;5.83;;;0.10;96.00;;;;;;5032201;28;20430;-58
2023/01/30 04:23:49;;;;;;;12.95;5.00;;;0.10;99.90;;;;;;5028742;28;20441;-58
2023/01/30 04:26:15;;;;;;;17.40;7.63;;;0.10;99.90;;;;;;5029273;28;20411;-58
2023/01/30 04:28:41;;;;;;;15.73;6.63;;;0.20;99.90;;;;;;5028581;28;20388;-57
2023/01/30 04:31:07;;;;;;;15.17;5.87;;;0.20;99.90;;;;;;5033141;28;20399;-57
2023/01/30 04:33:34;;;;;;;11.53;5.60;;;0.30;99.90;;;;;;5032702;28;20710;-57
2023/01/30 04:36:01;;;;;;;16.10;6.13;;;0.40;57.70;;;;;;5033686;28;20387;-58
2023/01/30 04:38:28;;;;;;;14.10;5.10;;;0.60;92.50;;;;;;5033308;28;20407;-58
2023/01/30 04:40:55;;;;;;;13.38;5.20;;;1.50;91.70;;;;;;5032771;28;20888;-58
2023/01/30 04:43:22;;;;;;;11.75;5.78;;;0.40;23.20;;;;;;5033120;28;20871;-58
2023/01/30 04:45:49;;;;;;;14.52;6.60;;;0.40;15.60;;;;;;5032192;28;20533;-58
2023/01/30 04:48:15;;;;;;;18.25;6.47;;;0.50;23.40;;;;;;5033665;28;20387;-58
2023/01/30 04:50:43;;;;;;;15.85;6.20;;;0.70;1.00;;;;;;5041996;28;20382;-60
2023/01/30 04:53:09;;;;;;;15.23;6.33;;;0.70;1.00;;;;;;5052537;28;20365;-58
2023/01/30 04:55:35;;;;;;;16.13;5.88;;;0.80;1.00;;;;;;5052781;28;20396;-58
2023/01/30 04:58:01;;;;;;;11.27;5.20;;;0.70;1.00;;;;;;5052596;28;20819;-61
2023/01/30 05:00:27;;;;;;;13.20;5.53;;;0.80;1.00;;;;;;5052047;28;20463;-59
2023/01/30 05:02:54;;;;;;;14.73;5.70;;;0.50;1.00;;;;;;5052791;28;20374;-60
2023/01/30 05:05:21;;;;;;;12.40;5.20;;;0.60;1.00;;;;;;5051658;28;20443;-60
2023/01/30 05:07:46;;;;;;;16.42;5.90;;;0.50;1.00;;;;;;5072034;28;20379;-60
2023/01/30 05:10:12;;;;;;;11.63;5.15;;;0.50;1.00;;;;;;5068879;28;20482;-60
2023/01/30 05:12:38;;;;;;;13.23;4.77;;;0.50;5.00;;;;;;5051866;28;20388;-60
2023/01/30 05:15:05;;;;;;;15.75;6.68;;;0.40;33.50;;;;;;5050735;28;20851;-59
2023/01/30 05:17:31;;;;;;;11.50;4.82;;;0.50;66.30;;;;;;5032663;28;20439;-59
2023/01/30 05:19:57;;;;;;;14.43;6.22;;;0.50;22.80;;;;;;5033100;28;20445;-60
2023/01/30 05:22:23;;;;;;;10.63;4.93;;;0.50;1.00;;;;;;5043993;28;20406;-60
2023/01/30 05:24:48;;;;;;;11.77;5.63;;;0.60;1.00;;;;;;5043125;28;20397;-61
2023/01/30 05:27:14;;;;;;;14.52;6.00;;;0.60;1.00;;;;;;5052451;28;20455;-61
2023/01/30 05:29:40;;;;;;;14.30;5.85;;;0.80;1.00;;;;;;5046407;28;20748;-60
2023/01/30 05:32:06;;;;;;;14.75;5.90;;;0.80;1.00;;;;;;5034585;28;20393;-60
2023/01/30 05:34:32;;;;;;;13.02;5.35;;;1.00;1.00;;;;;;5051414;28;20377;-63
2023/01/30 05:36:57;;;;;;;13.00;5.32;;;1.00;1.00;;;;;;5042078;28;20409;-61
2023/01/30 05:39:23;;;;;;;13.43;6.13;;;1.00;1.00;;;;;;5049317;28;20417;-60
2023/01/30 05:41:49;;;;;;;13.70;5.30;;;1.10;1.00;;;;;;5044110;28;20385;-60
2023/01/30 05:44:14;;;;;;;14.15;5.03;;;1.10;1.00;;;;;;5047140;28;20407;-60
2023/01/30 05:46:40;;;;;;;14.27;5.67;;;1.20;1.00;;;;;;5048617;28;20943;-59
2023/01/30 05:49:06;;;;;;;14.17;4.83;;;1.10;1.00;;;;;;5045571;28;20394;-60
2023/01/30 05:51:32;;;;;;;12.15;5.70;;;1.00;1.00;;;;;;5049503;28;20385;-59
2023/01/30 05:53:58;;;;;;;15.68;6.35;;;1.10;1.00;;;;;;5050826;28;20386;-59
2023/01/30 05:56:23;;;;;;;12.98;5.45;;;1.10;1.00;;;;;;5044078;28;20491;-60
2023/01/30 05:58:54;;;;;;;11.23;5.00;;;1.10;1.00;;;;;;5030770;28;20380;-61
2023/01/30 06:01:20;;;;;;;14.95;6.07;;;1.10;1.00;;;;;;5032673;28;20416;-59
2023/01/30 06:03:45;;;;;;;12.20;4.55;;;1.00;1.00;;;;;;5035078;28;20488;-60
2023/01/30 06:06:11;;;;;;;13.70;5.65;;;1.00;1.00;;;;;;5033294;28;20387;-59
2023/01/30 06:08:37;;;;;;;13.45;5.47;;;0.90;1.00;;;;;;5039293;28;20407;-59
2023/01/30 06:11:09;;;;;;;13.25;5.03;;;0.90;1.00;;;;;;5049784;28;20377;-60
2023/01/30 06:13:35;;;;;;;13.35;5.32;;;0.80;1.00;;;;;;5050352;28;20381;-60
2023/01/30 06:16:00;;;;;;;13.70;5.23;;;0.80;99.90;;;;;;5038378;28;20482;-60
2023/01/30 06:18:26;;;;;;;13.20;5.23;;;1.40;1.00;;;;;;5031257;28;20852;-60
2023/01/30 06:20:52;;;;;;;10.52;4.53;;;0.70;1.00;;;;;;5030467;28;20395;-60
2023/01/30 06:23:19;;;;;;;14.50;5.60;;;0.70;1.00;;;;;;5031375;28;20854;-60
2023/01/30 06:25:47;;;;;;;15.10;4.90;;;0.80;1.00;;;;;;5030350;28;20412;-58
2023/01/30 06:28:13;;;;;;;10.93;4.32;;;0.80;1.00;;;;;;5031132;28;20390;-60
2023/01/30 06:30:39;;;;;;;10.60;3.87;;;0.80;1.00;;;;;;5030179;28;20809;-59
2023/01/30 06:33:05;;;;;;;15.53;5.40;;;0.60;1.00;;;;;;5031328;28;20376;-59
2023/01/30 06:35:31;;;;;;;11.93;4.70;;;0.70;1.00;;;;;;5029457;28;20407;-59
2023/01/30 06:37:57;;;;;;;12.43;5.20;;;0.80;25.50;;;;;;5030318;28;20812;-60
2023/01/30 06:40:22;;;;;;;14.80;5.10;;;0.90;21.30;;;;;;5030507;28;20387;-58
2023/01/30 06:42:49;;;;;;;16.38;5.80;;;0.90;1.00;;;;;;5045721;28;20445;-60
2023/01/30 06:45:16;;;;;;;13.88;4.72;;;1.00;1.00;;;;;;5031146;28;20426;-60
2023/01/30 06:47:50;;;;;;;10.43;4.43;;;1.00;1.00;;;;;;5030084;28;20402;-58
2023/01/30 06:50:18;;;;;;;14.88;5.30;;;1.00;1.00;;;;;;5030816;28;20453;-58
2023/01/30 06:52:49;;;;;;;13.35;5.07;;;1.00;1.00;;;;;;5029864;28;20375;-58
2023/01/30 06:55:16;;;;;;;10.70;4.47;;;0.90;1.00;;;;;;5030556;28;20402;-59
2023/01/30 06:57:43;;;;;;;13.95;5.00;;;1.10;1.00;;;;;;5028467;28;20772;-61
2023/01/30 07:00:27;;;;;;;14.48;5.32;;;1.10;1.00;;;;;;5030533;28;20387;-60
2023/01/30 07:02:52;;;;;;;13.20;5.40;;;1.20;1.00;;;;;;5030481;28;20383;-60
2023/01/30 07:05:18;;;;;;;11.37;5.00;;;1.30;1.00;;;;;;5041874;28;20423;-60
2023/01/30 07:07:43;;;;;;;10.70;4.83;;;2.10;1.00;;;;;;5049745;28;20732;-60
2023/01/30 07:10:11;;;;;;;11.07;4.82;;;1.10;1.00;;;;;;5050339;28;20385;-60
2023/01/30 07:12:37;;;;;;;12.43;5.53;;;1.10;1.00;;;;;;5049804;28;20387;-60
2023/01/30 07:15:04;;;;;;;12.32;5.00;;;1.10;1.00;;;;;;5050084;28;20404;-60
2023/01/30 07:17:29;;;;;;;11.10;4.50;;;1.20;1.00;;;;;;5050192;28;20405;-61
2023/01/30 07:19:55;;;;;;;12.57;4.50;;;1.10;1.00;;;;;;5049346;28;20392;-60
2023/01/30 07:22:20;;;;;;;13.97;5.37;;;1.20;1.00;;;;;;5049782;28;20421;-60
2023/01/30 07:24:46;;;;;;;14.13;4.55;;;1.20;1.00;;;;;;5049640;28;20389;-60
2023/01/30 07:27:12;;;;;;;12.30;4.87;;;1.90;1.00;;;;;;5049913;28;20794;-61
2023/01/30 07:29:39;;;;;;;10.88;4.50;;;1.30;1.00;;;;;;5049406;28;20423;-60
2023/01/30 07:32:14;;;;;;;13.43;4.30;;;1.20;1.00;;;;;;5049928;28;20384;-60
2023/01/30 07:34:40;;;;;;;11.48;4.57;;;1.20;1.00;;;;;;5049103;28;20373;-58
2023/01/30 07:37:06;;;;;;;12.38;4.38;;;1.20;1.00;;;;;;5049314;28;20439;-58
2023/01/30 07:39:32;;;;;;;10.77;4.60;;;1.40;1.00;;;;;;5049292;28;20415;-59
2023/01/30 07:42:00;;;;;;;13.25;4.80;;;2.10;1.00;;;;;;5049924;28;20754;-60
2023/01/30 07:44:25;;;;;;;9.70;4.38;;;1.60;1.00;;;;;;5049733;28;20468;-58
2023/01/30 07:46:51;;;;;;;10.20;3.97;;;1.40;1.00;;;;;;5048681;28;20477;-60
2023/01/30 07:49:16;;;;;;;17.60;3.83;;;1.40;1.00;;;;;;5049981;28;20485;-58
2023/01/30 07:51:42;;;;;;;12.32;4.78;;;1.30;1.00;;;;;;5048450;28;20812;-58
2023/01/30 07:54:08;;;;;;;12.18;4.70;;;1.30;1.00;;;;;;5049384;28;20373;-60
2023/01/30 07:56:34;;;;;;;11.00;4.43;;;1.30;1.00;;;;;;5048851;28;20443;-57
2023/01/30 07:58:59;;;;;;;11.45;4.68;;;1.20;1.00;;;;;;5049377;28;20393;-60
2023/01/30 08:01:25;;;;;;;13.25;3.95;;;1.40;1.00;;;;;;5049363;28;20389;-60
2023/01/30 08:03:57;;;;;;;15.40;4.33;;;1.30;1.00;;;;;;5048142;28;20962;-60
2023/01/30 08:06:22;;;;;;;15.10;4.60;;;1.30;99.90;;;;;;5049400;28;20389;-61
2023/01/30 08:08:48;;;;;;;11.68;4.55;;;1.40;99.90;;;;;;5048871;28;20766;-60
2023/01/30 08:11:13;;;;;;;12.50;4.67;;;1.40;99.90;;;;;;5049442;28;20428;-61
2023/01/30 08:13:39;;;;;;;11.33;4.43;;;1.30;99.90;;;;;;5049058;28;20439;-58
2023/01/30 08:16:06;;;;;;;8.63;3.75;;;1.30;1.00;;;;;;5049411;28;20893;-60
2023/01/30 08:18:33;;;;;;;9.10;3.83;;;1.40;99.90;;;;;;5048889;28;20740;-59
2023/01/30 08:21:00;;;;;;;13.02;4.20;;;1.30;99.90;;;;;;5048468;28;20552;-58
2023/01/30 08:23:26;;;;;;;13.32;5.07;;;1.40;99.90;;;;;;5049050;28;20393;-60
2023/01/30 08:25:56;;;;;;;12.80;3.97;;;1.40;99.90;;;;;;5048322;28;20504;-60
2023/01/30 08:28:22;;;;;;;11.40;4.72;;;1.50;99.90;;;;;;5049282;28;20393;-60
2023/01/30 08:30:48;;;;;;;11.20;3.70;;;1.60;99.90;;;;;;5048369;28;20416;-59
2023/01/30 08:33:14;;;;;;;12.82;4.70;;;2.50;1.00;;;;;;5049331;28;20515;-59
2023/01/30 08:35:40;;;;;;;13.45;5.13;;;3.40;1.00;;;;;;5048695;28;20767;-59
2023/01/30 08:38:07;;;;;;;9.38;3.90;;;5.10;99.90;;;;;;5048730;28;20401;-59
2023/01/30 08:40:34;;;;;;;11.13;5.13;;;2.90;99.90;;;;;;5048838;28;20397;-57
2023/01/30 08:43:00;;;;;;;16.65;4.97;;;2.70;99.90;;;;;;5048556;28;20388;-61
2023/01/30 08:45:25;;;;;;;10.88;4.38;;;2.30;99.90;;;;;;5049192;28;20797;-60
2023/01/30 08:47:51;;;;;;;11.70;4.80;;;2.40;1.00;;;;;;5048286;28;21259;-61
2023/01/30 08:50:17;;;;;;;12.83;4.83;;;4.00;1.00;;;;;;5048753;28;20723;-59
2023/01/30 08:52:42;;;;;;;11.95;4.90;;;2.70;1.00;;;;;;5047688;28;20382;-59
2023/01/30 08:55:08;;;;;;;12.70;4.63;;;3.10;99.90;;;;;;5048676;28;20389;-59
2023/01/30 08:57:34;;;;;;;11.97;4.97;;;3.50;99.90;;;;;;5048261;28;20813;-57
2023/01/30 09:00:01;;;;;;;11.07;4.10;;;3.40;99.90;;;;;;5048833;28;20385;-59
2023/01/30 09:02:26;;;;;;;11.80;3.90;;;3.00;99.90;;;;;;5048668;28;20851;-59
2023/01/30 09:04:52;;;;;;;11.77;4.93;;;2.90;99.90;;;;;;5048016;28;20352;-59
2023/01/30 09:07:18;;;;;;;10.17;4.10;;;2.90;99.90;;;;;;5048331;28;20846;-59
2023/01/30 09:09:44;;;;;;;10.65;3.85;;;3.60;99.90;;;;;;5048075;28;20377;-58
2023/01/30 09:12:10;;;;;;;13.80;3.83;;;2.50;1.00;;;;;;5048631;28;20389;-59
2023/01/30 09:14:35;;;;;;;11.00;3.85;;;2.50;1.00;;;;;;5048176;28;20386;-58
2023/01/30 09:17:01;;;;;;;11.40;3.80;;;2.70;99.90;;;;;;5051837;28;20886;-59
2023/01/30 09:19:28;;;;;;;10.98;3.75;;;2.70;90.70;;;;;;5052212;28;20389;-59
2023/01/30 09:21:54;;;;;;;10.73;3.90;;;2.70;99.90;;;;;;5051335;28;20461;-58
2023/01/30 09:24:25;;;;;;;8.65;3.38;;;2.80;99.90;;;;;;5051940;28;20829;-59
2023/01/30 09:26:58;;;;;;;10.30;3.30;;;2.90;1.00;;;;;;5050898;28;20947;-59
2023/01/30 09:29:27;;;;;;;10.13;3.40;;;2.70;99.90;;;;;;5051811;28;20758;-59
2023/01/30 09:31:57;;;;;;;10.32;4.00;;;2.70;99.90;;;;;;5051122;28;20384;-58
2023/01/30 09:34:27;;;;;;;8.32;3.20;;;4.10;1.00;;;;;;5051927;28;20794;-59
2023/01/30 09:36:54;;;;;;;8.73;3.35;;;2.70;1.00;;;;;;5050770;28;20532;-58
2023/01/30 09:39:20;;;;;;;8.40;3.07;;;2.70;1.00;;;;;;5051573;28;20476;-58
2023/01/30 09:41:59;;;;;;;9.60;3.20;;;2.80;99.90;;;;;;5051187;28;20557;-58
2023/01/30 09:45:13;;;;;;;8.18;3.00;;;3.50;99.90;;;;;;5051879;28;20413;-59
2023/01/30 09:47:54;;;;;;;7.15;2.80;;;2.60;99.90;;;;;;5049662;28;20408;-58
2023/01/30 09:50:34;;;;;;;7.88;3.00;;;2.60;16.80;;;;;;5051054;28;20403;-59
2023/01/30 09:53:16;;;;;;;7.80;2.47;;;2.60;99.90;;;;;;5050799;28;20381;-58
2023/01/30 09:55:42;;;;;;;8.32;3.25;;;2.70;99.90;;;;;;5050932;28;20394;-58
2023/01/30 09:58:17;;;;;;;11.48;4.20;;;2.60;1.00;;;;;;5051366;28;20506;-59
2023/01/30 10:00:42;;;;;;;7.33;2.83;;;2.60;1.00;;;;;;5050473;28;20382;-59
2023/01/30 10:03:17;;;;;;;8.40;3.10;;;2.70;1.00;;;;;;5051238;28;20462;-58
2023/01/30 10:05:50;;;;;;;7.88;3.20;;;2.70;99.90;;;;;;5050516;28;20810;-58
2023/01/30 10:08:18;;;;;;;8.55;3.95;;;2.90;99.90;;;;;;5050137;28;20400;-59
2023/01/30 10:10:47;;;;;;;10.90;3.70;;;2.90;99.90;;;;;;5050498;28;20428;-59
2023/01/30 10:13:40;;;;;;;9.10;3.25;;;2.90;99.90;;;;;;5050925;28;20382;-59
2023/01/30 10:16:12;;;;;;;9.38;3.08;;;2.90;51.90;;;;;;5051005;28;20382;-59
2023/01/30 10:19:15;;;;;;;11.00;3.58;;;3.00;99.90;;;;;;5050352;28;20413;-58
2023/01/30 10:21:59;;;;;;;8.55;3.60;;;3.10;99.90;;;;;;5050568;28;20397;-58
2023/01/30 10:24:36;;;;;;;7.82;3.15;;;3.00;99.90;;;;;;5050753;28;20424;-60
2023/01/30 10:27:03;;;;;;;9.23;3.65;;;3.10;99.90;;;;;;5049641;28;20498;-59
2023/01/30 10:29:56;;;;;;;7.78;3.22;;;3.20;99.90;;;;;;5050545;28;20385;-59
2023/01/30 10:32:43;;;;;;;7.70;2.80;;;3.20;99.90;;;;;;5050800;28;20437;-59
2023/01/30 10:35:21;;;;;;;10.02;3.50;;;3.20;99.90;;;;;;5050731;28;20464;-61
2023/01/30 10:38:34;;;;;;;9.30;3.10;;;3.30;99.90;;;;;;5049785;28;20512;-59
2023/01/30 10:41:27;;;;;;;8.23;2.42;;;2.10;99.90;;;;;;5050326;28;20381;-59
2023/01/30 10:44:08;;;;;;;7.45;2.50;;;3.60;99.90;;;;;;5049452;28;20402;-59
2023/01/30 10:46:43;;;;;;;6.30;2.00;;;3.60;99.90;;;;;;5050582;28;20393;-58
2023/01/30 10:49:39;;;;;;;6.03;1.77;;;3.70;99.90;;;;;;5050138;28;20380;-59
2023/01/30 10:52:33;;;;;;;6.10;2.40;;;3.70;99.90;;;;;;5050770;28;20390;-59
2023/01/30 10:55:26;;;;;;;6.60;2.30;;;3.80;1.00;;;;;;5049246;28;20394;-59
2023/01/30 10:58:15;;;;;;;7.53;2.00;;;4.00;1.00;;;;;;5049913;28;20460;-59
2023/01/30 11:00:46;;;;;;;6.67;2.20;;;5.00;99.90;;;;;;5049593;28;20392;-59
2023/01/30 11:03:46;;;;;;;8.02;2.30;;;4.20;1.00;;;;;;5050386;28;20385;-59
2023/01/30 11:06:22;;;;;;;11.30;1.65;;;4.30;99.90;;;;;;5049985;28;20722;-59
2023/01/30 11:08:48;;;;;;;6.55;1.80;;;4.30;99.90;;;;;;5049476;28;20396;-59
2023/01/30 11:11:28;;;;;;;5.72;1.60;;;5.70;99.90;;;;;;5050167;28;20412;-59
2023/01/30 11:14:20;;;;;;;7.57;3.70;;;5.40;1.00;;;;;;5049349;28;20382;-59
2023/01/30 11:16:57;;;;;;;6.13;1.20;;;4.30;1.00;;;;;;5046150;28;20797;-59
2023/01/30 11:19:30;;;;;;;6.30;1.10;;;4.20;99.90;;;;;;5050071;28;20439;-59
2023/01/30 11:22:00;;;;;;;5.30;1.50;;;4.30;99.90;;;;;;5049333;28;20563;-59
2023/01/30 11:24:37;;;;;;;4.70;1.00;;;4.40;1.00;;;;;;5049799;28;20431;-59
2023/01/30 11:27:30;;;;;;;6.00;1.40;;;4.30;96.50;;;;;;5049461;28;20405;-59
2023/01/30 11:30:26;;;;;;;4.80;1.10;;;4.20;1.00;;;;;;5058743;28;20455;-59
2023/01/30 11:33:11;;;;;;;5.80;1.00;;;4.10;1.00;;;;;;5046674;28;20400;-59
2023/01/30 11:35:53;;;;;;;4.88;1.40;;;4.30;1.00;;;;;;5049572;28;20742;-57
2023/01/30 11:38:51;;;;;;;5.10;1.20;;;5.90;1.00;;;;;;5049470;28;20444;-59
2023/01/30 11:41:21;;;;;;;6.15;1.30;;;4.40;99.90;;;;;;5049493;28;20842;-60
2023/01/30 11:43:47;;;;;;;5.38;1.30;;;4.50;99.90;;;;;;5048599;28;20827;-59
2023/01/30 11:46:19;;;;;;;5.78;1.35;;;4.60;99.90;;;;;;5049972;28;20916;-61
2023/01/30 11:48:54;;;;;;;5.23;1.30;;;4.60;99.90;;;;;;5048993;28;20428;-59
2023/01/30 11:51:22;;;;;;;5.13;0.93;;;4.60;1.00;;;;;;5049530;28;20941;-59
2023/01/30 11:53:59;;;;;;;4.20;0.50;;;4.60;1.00;;;;;;5048672;28;20369;-59
2023/01/30 11:56:37;;;;;;;4.00;0.50;;;5.10;1.00;;;;;;5049431;28;20396;-58
2023/01/30 11:59:27;;;;;;;5.40;1.10;;;4.50;99.90;;;;;;5048993;28;20771;-59
2023/01/30 12:02:13;;;;;;;4.80;1.07;;;4.50;1.00;;;;;;5049068;28;20854;-59
2023/01/30 12:04:46;;;;;;;4.90;0.70;;;5.40;1.00;;;;;;5048784;28;20381;-58
2023/01/30 12:07:28;;;;;;;3.85;0.60;;;4.40;1.00;;;;;;5049541;28;20392;-59
2023/01/30 12:09:55;;;;;;;4.20;0.70;;;4.40;1.00;;;;;;5048847;28;20476;-59
2023/01/30 12:12:34;;;;;;;4.28;0.95;;;4.40;1.00;;;;;;5049241;28;20413;-59
2023/01/30 12:15:26;;;;;;;4.43;0.60;;;5.50;99.90;;;;;;5048311;28;20711;-59
2023/01/30 12:18:27;;;;;;;3.80;0.40;;;4.50;1.00;;;;;;5048268;28;20405;-59
2023/01/30 12:21:00;;;;;;;3.80;0.60;;;4.50;99.90;;;;;;5048699;28;20389;-59
2023/01/30 12:23:43;;;;;;;4.60;0.70;;;4.50;1.00;;;;;;5049306;28;20392;-59
2023/01/30 12:26:23;;;;;;;4.20;0.70;;;4.50;99.90;;;;;;5049217;28;20456;-59
2023/01/30 12:29:16;;;;;;;3.80;0.60;;;4.50;99.90;;;;;;5048294;28;20814;-59
2023/01/30 12:32:19;;;;;;;3.70;0.50;;;4.60;99.90;;;;;;5048650;28;20378;-59
2023/01/30 12:34:46;;;;;;;4.80;0.60;;;4.50;99.90;;;;;;5048826;28;20404;-59
2023/01/30 12:37:20;;;;;;;3.60;0.40;;;4.50;99.90;;;;;;5049021;28;20462;-59
2023/01/30 12:39:58;;;;;;;3.90;0.47;;;4.40;1.00;;;;;;5048306;28;20403;-59
2023/01/30 12:42:36;;;;;;;3.90;0.63;;;4.40;99.90;;;;;;5049019;28;20461;-59
2023/01/30 12:45:11;;;;;;;4.43;0.93;;;4.60;99.90;;;;;;5048643;28;20377;-59
2023/01/30 12:48:01;;;;;;;5.27;1.00;;;6.40;99.90;;;;;;5048951;28;20755;-58
2023/01/30 12:50:59;;;;;;;4.10;0.70;;;4.50;1.00;;;;;;5049830;28;20382;-59
2023/01/30 12:53:43;;;;;;;3.80;0.60;;;4.40;1.00;;;;;;5053213;28;21140;-59
2023/01/30 12:56:26;;;;;;;3.70;0.40;;;4.40;7.80;;;;;;5068371;28;20492;-59
2023/01/30 12:59:23;;;;;;;3.85;0.80;;;4.30;1.00;;;;;;5052086;28;20416;-59
2023/01/30 13:02:19;;;;;;;4.20;0.80;;;4.40;1.00;;;;;;5051659;28;20436;-59
2023/01/30 13:05:05;;;;;;;4.20;0.88;;;4.40;99.90;;;;;;5051965;28;20412;-59
2023/01/30 13:07:45;;;;;;;4.72;0.73;;;4.40;1.00;;;;;;5052551;28;20893;-59
2023/01/30 13:10:33;;;;;;;4.45;0.98;;;4.40;99.90;;;;;;5052206;28;20731;-59
2023/01/30 13:13:13;;;;;;;4.70;0.65;;;4.40;99.90;;;;;;5043895;28;20476;-59
2023/01/30 13:16:06;;;;;;;4.30;0.70;;;4.40;1.00;;;;;;5031849;28;20513;-57
2023/01/30 13:19:02;;;;;;;4.60;0.70;;;4.30;88.20;;;;;;5032450;28;20399;-59
2023/01/30 13:21:54;;;;;;;4.70;1.00;;;4.30;99.90;;;;;;5029225;28;20395;-59
2023/01/30 13:24:38;;;;;;;4.67;1.17;;;4.30;1.00;;;;;;5023743;28;20479;-59
2023/01/30 13:27:08;;;;;;;4.50;0.80;;;4.30;99.90;;;;;;5031650;28;20501;-59